Create Tblcommutelog Verified Points Advance Search
| # | Trip ID | Id Commuter | Trip Date | Trip Num | Current Lat | Current Lng | Delta Distance | Current Time | Activity | Activity Confidence | Current Speed | |
|---|---|---|---|---|---|---|---|---|---|---|---|---|
| 70761 | 250924_788474_16657103_1745 | 788474 | (not set) | (not set) | 38.386068466395 | -77.44711073502 | 41.958 | 2025-09-24 18:34:04 | in_vehicle | 100 | 14.385723354225 | |
| 70762 | 250924_789125_16657909_1745 | 789125 | (not set) | (not set) | 39.027728981704 | -77.052728624833 | 11.4228 | 2025-09-24 18:34:27 | in_vehicle | 100 | 3.6388995681601 | |
| 70763 | 250924_781766_16649466_1811 | 781766 | (not set) | (not set) | 38.9437731 | -77.1503863 | 9.2775 | 2025-09-24 18:34:48 | in_vehicle | 100 | 9.3610020832029 | |
| 70764 | 250924_788474_16657103_1745 | 788474 | (not set) | (not set) | 38.372372116464 | -77.464575330129 | 43.2991 | 2025-09-24 18:35:14 | in_vehicle | 100 | 13.071427932801 | |
| 70765 | 250924_781052_16648727_1713 | 781052 | (not set) | (not set) | 39.211887705345 | -77.299447171276 | 32.6023 | 2025-09-24 18:35:38 | in_vehicle | 100 | 7.9796507729309 | |
| 70766 | 250924_770403_6455647_1835 | 770403 | (not set) | (not set) | 39.000270439098 | -76.948530182853 | 0 | 2025-09-24 18:35:59 | unknown | 100 | -0.44703925898772 | |
| 70767 | 250924_770403_6455647_1835 | 770403 | (not set) | (not set) | 39.000270439098 | -76.948530182853 | 0 | 2025-09-24 18:36:14 | unknown | 100 | -0.44703925898772 | |
| 70768 | 250924_772317_16639583_1816 | 772317 | (not set) | (not set) | 38.9195785837 | -77.054566446627 | 2.635 | 2025-09-24 18:36:26 | on_bicycle | 100 | 3.1784491314027 | |
| 70769 | 250924_785311_16653433_1718 | 785311 | (not set) | (not set) | 38.9245483 | -76.9945783 | 1.7598 | 2025-09-24 17:28:39 | still | 100 | 8.6367984836428 | |
| 70770 | 250924_785311_16653433_1718 | 785311 | (not set) | (not set) | 38.9355483 | -76.995255 | 2.5327 | 2025-09-24 17:30:36 | still | 100 | 7.903654098903 | |
| 70771 | 250924_776618_16644147_1817 | 776618 | (not set) | (not set) | 38.889978936845 | -77.205830201216 | 1.3079 | 2025-09-24 18:23:22 | in_vehicle | 100 | 4.5687412268545 | |
| 70772 | 250924_785415_16653553_1745 | 785415 | (not set) | (not set) | 39.34448758014 | -76.691820641833 | 5.5932 | 2025-09-24 18:23:36 | on_foot | 66 | 0.1966972739546 | |
| 70773 | 250924_789037_16657801_1757 | 789037 | (not set) | (not set) | 39.00920684511 | -76.694990268692 | 14.2011 | 2025-09-24 18:23:46 | in_vehicle | 100 | 5.646105841015 | |
| 70774 | 250924_787968_16656505_1552 | 787968 | (not set) | (not set) | 38.765098493677 | -77.503075978594 | 56.7956 | 2025-09-24 18:23:58 | in_vehicle | 100 | 5.9053886112278 | |
| 70775 | 250924_788397_16657014_1643 | 788397 | (not set) | (not set) | 39.323839923853 | -76.632822150913 | 38.4934 | 2025-09-24 18:24:13 | in_vehicle | 100 | 10.474129838082 | |
| 70776 | 250924_772317_16639583_1816 | 772317 | (not set) | (not set) | 38.898358048687 | -77.045219428673 | 0.0802 | 2025-09-24 18:24:26 | still | 33 | 0 | |
| 70777 | 250924_781475_16653956_1738 | 781475 | (not set) | (not set) | 39.036759444925 | -77.053029580606 | 12.8858 | 2025-09-24 18:24:37 | on_foot | 100 | 0.60350299963343 | |
| 70778 | 250924_784667_16652649_1745 | 784667 | (not set) | (not set) | 38.8752771 | -77.0388966 | 2.9613 | 2025-09-24 18:03:10 | in_vehicle | 100 | 7.6533121138698 | |
| 70779 | 250924_784667_16652649_1745 | 784667 | (not set) | (not set) | 38.8303597 | -77.0463735 | 6.4202 | 2025-09-24 18:14:22 | in_vehicle | 100 | 7.3850885584772 | |
| 70780 | 250924_784667_16652649_1745 | 784667 | (not set) | (not set) | 38.805325 | -77.0906657 | 9.9386 | 2025-09-24 18:22:43 | in_vehicle | 100 | 14.466190420843 |